Time;durP1;ratioP1;P1;durP2;ratioP2;P2;SDS_P1;SDS_P2;PMS_P1;PMS_P2;Temp;Humidity;BMP_temperature;BMP_pressure;BME280_temperature;BME280_humidity;BME280_pressure;Samples;Min_cycle;Max_cycle;Signal;HPM_P1;HPM_P2
2021/08/09 00:02:19;;;;;;;4.43;2.60;;;;;;;15.78;nan;101555.97;6270156;22;20008;-50
2021/08/09 00:04:45;;;;;;;7.30;2.88;;;;;;;15.79;nan;101552.19;6270275;22;20062;-50
2021/08/09 00:07:11;;;;;;;3.60;2.60;;;;;;;15.81;nan;101552.78;6270608;22;20003;-49
2021/08/09 00:09:37;;;;;;;4.88;2.25;;;;;;;15.75;nan;101556.50;6272012;22;19999;-51
2021/08/09 00:12:03;;;;;;;3.60;2.78;;;;;;;15.76;nan;101574.34;6270288;22;20014;-50
2021/08/09 00:14:28;;;;;;;2.63;2.25;;;;;;;15.78;nan;101569.47;6270696;22;20467;-49
2021/08/09 00:16:54;;;;;;;2.95;2.28;;;;;;;15.71;nan;101569.72;6270091;22;20003;-50
2021/08/09 00:19:20;;;;;;;2.72;2.40;;;;;;;15.66;nan;101574.31;6270318;22;20000;-50
2021/08/09 00:21:46;;;;;;;4.43;2.28;;;;;;;15.63;nan;101569.44;6243987;22;20004;-49
2021/08/09 00:24:11;;;;;;;4.63;2.10;;;;;;;15.68;nan;101575.66;6269740;22;20011;-51
2021/08/09 00:26:37;;;;;;;5.15;2.25;;;;;;;15.67;nan;101575.94;6270013;22;20003;-50
2021/08/09 00:29:03;;;;;;;4.30;2.08;;;;;;;15.70;nan;101576.22;6270106;22;20336;-50
2021/08/09 00:31:28;;;;;;;1.83;1.40;;;;;;;15.75;nan;101577.31;6270654;22;20003;-49
2021/08/09 00:33:54;;;;;;;3.17;1.67;;;;;;;15.74;nan;101581.91;6270425;22;20015;-49
2021/08/09 00:36:20;;;;;;;2.65;1.50;;;;;;;15.80;nan;101578.16;6270720;22;20004;-49
2021/08/09 00:38:46;;;;;;;5.82;1.30;;;;;;;15.73;nan;101582.97;6270656;22;20008;-51
2021/08/09 00:41:11;;;;;;;1.60;1.35;;;;;;;15.75;nan;101582.72;6269236;22;20417;-50
2021/08/09 00:43:37;;;;;;;4.97;1.60;;;;;;;15.84;nan;101584.66;6270685;22;19999;-51
2021/08/09 00:46:04;;;;;;;4.03;1.45;;;;;;;15.80;nan;101586.28;6269199;22;20054;-52
2021/08/09 00:48:36;;;;;;;2.65;1.60;;;;;;;15.75;nan;101585.41;6270638;22;20011;-51
2021/08/09 00:51:03;;;;;;;1.83;1.60;;;;;;;15.32;nan;101584.59;6269670;22;20003;-50
2021/08/09 00:53:29;;;;;;;2.30;1.60;;;;;;;15.33;nan;101597.81;6271050;22;20362;-49
2021/08/09 00:55:54;;;;;;;4.00;1.80;;;;;;;15.32;nan;101598.91;6269090;22;20271;-50
2021/08/09 00:58:20;;;;;;;4.05;1.80;;;;;;;15.29;nan;101596.72;6270897;22;20235;-50
2021/08/09 01:00:47;;;;;;;1.70;1.60;;;;;;;15.27;nan;101598.88;6269204;22;20010;-49
2021/08/09 01:03:12;;;;;;;3.92;2.10;;;;;;;15.23;nan;101592.34;6269837;22;20004;-49
2021/08/09 01:05:38;;;;;;;3.88;1.85;;;;;;;15.18;nan;101600.41;6269695;22;20061;-51
2021/08/09 01:08:22;;;;;;;3.35;1.60;;;;;;;15.16;nan;101597.16;6269297;22;20007;-49
2021/08/09 01:11:08;;;;;;;4.53;1.50;;;;;;;15.10;nan;101593.59;6269745;22;19999;-50
2021/08/09 01:13:55;;;;;;;3.53;2.10;;;;;;;15.05;nan;101595.44;6271474;22;20008;-50
2021/08/09 01:16:27;;;;;;;2.63;1.52;;;;;;;15.03;nan;101605.66;6269670;22;20421;-49
2021/08/09 01:18:59;;;;;;;3.50;2.00;;;;;;;14.99;nan;101599.16;6270027;22;20026;-49
2021/08/09 01:21:30;;;;;;;4.07;2.05;;;;;;;14.85;nan;101606.03;6269791;22;20012;-49
2021/08/09 01:24:26;;;;;;;3.33;2.30;;;;;;;14.71;nan;101606.44;6269107;22;20038;-49
2021/08/09 01:26:56;;;;;;;4.47;2.05;;;;;;;14.73;nan;101604.34;6261889;22;20019;-50
2021/08/09 01:29:30;;;;;;;3.72;1.83;;;;;;;14.68;nan;101609.66;6270162;22;20014;-49
2021/08/09 01:31:58;;;;;;;3.15;1.80;;;;;;;14.66;nan;101602.88;6269885;22;20012;-49
2021/08/09 01:34:25;;;;;;;6.63;2.25;;;;;;;14.65;nan;101612.88;6269230;22;20003;-49
2021/08/09 01:36:54;;;;;;;4.13;1.92;;;;;;;14.62;nan;101624.16;6270006;22;19996;-49
2021/08/09 01:39:20;;;;;;;10.18;2.28;;;;;;;14.57;nan;101616.03;6268976;22;20355;-49
2021/08/09 01:41:48;;;;;;;5.35;2.08;;;;;;;14.49;nan;101625.38;6269847;22;20003;-49
2021/08/09 01:44:15;;;;;;;2.35;1.98;;;;;;;14.43;nan;101623.69;6241851;22;20031;-49
2021/08/09 01:46:41;;;;;;;4.15;1.88;;;;;;;14.44;nan;101628.00;6270138;22;20046;-49
2021/08/09 01:49:07;;;;;;;2.88;1.83;;;;;;;14.35;nan;101634.88;6269266;22;20451;-50
2021/08/09 01:51:34;;;;;;;5.20;1.73;;;;;;;14.41;nan;101633.06;6269845;22;20335;-49
2021/08/09 01:54:01;;;;;;;5.72;2.08;;;;;;;14.34;nan;101629.72;6268955;22;20007;-49
2021/08/09 01:56:27;;;;;;;2.28;1.50;;;;;;;14.28;nan;101639.66;6269283;22;20000;-49
2021/08/09 01:58:53;;;;;;;2.00;1.77;;;;;;;14.18;nan;101644.91;6269562;22;20219;-50
2021/08/09 02:01:22;;;;;;;3.95;2.17;;;;;;;14.15;nan;101643.53;6269056;22;20046;-49
2021/08/09 02:03:48;;;;;;;5.60;2.50;;;;;;;14.14;nan;101646.47;6269839;22;20007;-49
2021/08/09 02:06:14;;;;;;;3.88;1.95;;;;;;;14.11;nan;101647.78;6268753;22;20430;-49
2021/08/09 02:08:40;;;;;;;3.67;1.95;;;;;;;14.05;nan;101654.19;6269225;22;20481;-49
2021/08/09 02:11:13;;;;;;;3.90;1.90;;;;;;;13.99;nan;101657.84;6268660;22;20078;-51
2021/08/09 02:13:49;;;;;;;5.15;2.17;;;;;;;13.87;nan;101646.38;6270179;22;20007;-49
2021/08/09 02:16:20;;;;;;;2.15;1.90;;;;;;;13.86;nan;101652.84;6268176;22;20007;-49
2021/08/09 02:18:47;;;;;;;4.43;1.98;;;;;;;13.82;nan;101657.06;6269792;22;20007;-49
2021/08/09 02:21:16;;;;;;;3.85;1.75;;;;;;;13.77;nan;101657.81;6268259;22;20015;-50
2021/08/09 02:23:52;;;;;;;3.20;1.90;;;;;;;13.76;nan;101658.88;6268413;22;20046;-49
2021/08/09 02:26:27;;;;;;;4.32;2.33;;;;;;;13.70;nan;101662.56;6268446;22;20061;-49
2021/08/09 02:28:55;;;;;;;5.57;2.17;;;;;;;13.74;nan;101666.41;6269399;22;20079;-51
2021/08/09 02:31:23;;;;;;;3.38;2.10;;;;;;;13.72;nan;101665.84;6268828;22;20003;-51
2021/08/09 02:33:50;;;;;;;6.60;2.50;;;;;;;13.65;nan;101673.28;6269622;22;20004;-49
2021/08/09 02:36:16;;;;;;;2.17;1.80;;;;;;;13.52;nan;101678.97;6268882;22;20002;-49
2021/08/09 02:38:43;;;;;;;3.95;2.20;;;;;;;13.55;nan;101681.19;6269229;22;20034;-49
2021/08/09 02:41:09;;;;;;;5.15;1.83;;;;;;;13.45;nan;101681.81;6267118;22;20078;-50
2021/08/09 02:43:35;;;;;;;2.75;2.40;;;;;;;13.39;nan;101681.97;6268764;22;20078;-48
2021/08/09 02:46:03;;;;;;;3.85;2.65;;;;;;;13.36;nan;101685.16;6268241;22;20039;-49
2021/08/09 02:48:31;;;;;;;6.07;2.20;;;;;;;13.26;nan;101691.19;6269993;22;20083;-52
2021/08/09 02:50:57;;;;;;;3.25;1.90;;;;;;;12.90;nan;101693.19;6268765;22;20008;-50
2021/08/09 02:53:24;;;;;;;3.25;2.05;;;;;;;12.93;nan;101697.31;6267502;22;20399;-49
2021/08/09 02:55:58;;;;;;;4.85;2.33;;;;;;;13.06;nan;101698.84;6268872;22;20000;-49
2021/08/09 02:58:24;;;;;;;4.73;2.43;;;;;;;12.85;nan;101703.06;6268212;22;20269;-49
2021/08/09 03:00:50;;;;;;;4.30;2.15;;;;;;;12.95;nan;101706.75;6268848;22;20732;-49
2021/08/09 03:03:21;;;;;;;4.45;2.20;;;;;;;12.90;nan;101705.81;6268062;22;20007;-48
2021/08/09 03:05:51;;;;;;;3.40;2.38;;;;;;;12.89;nan;101713.06;6269212;22;20069;-49
2021/08/09 03:08:17;;;;;;;3.55;2.40;;;;;;;12.83;nan;101713.22;6268144;22;20011;-50
2021/08/09 03:10:42;;;;;;;4.10;2.08;;;;;;;12.87;nan;101709.81;6268902;22;20357;-50
2021/08/09 03:13:10;;;;;;;4.82;2.15;;;;;;;12.84;nan;101714.88;6268211;22;20053;-50
2021/08/09 03:15:37;;;;;;;3.85;2.30;;;;;;;12.85;nan;101721.88;6269816;22;20074;-49
2021/08/09 03:18:02;;;;;;;3.75;2.25;;;;;;;12.84;nan;101718.38;6268637;22;20212;-50
2021/08/09 03:20:30;;;;;;;5.20;2.45;;;;;;;12.81;nan;101712.66;6269640;22;20313;-49
2021/08/09 03:22:56;;;;;;;5.78;2.55;;;;;;;12.81;nan;101716.16;6268424;22;20011;-49
2021/08/09 03:25:21;;;;;;;4.47;2.80;;;;;;;12.79;nan;101710.22;6268641;22;20003;-49
2021/08/09 03:27:47;;;;;;;4.50;2.22;;;;;;;12.79;nan;101712.91;6269515;22;20198;-48
2021/08/09 03:30:12;;;;;;;4.10;2.08;;;;;;;12.77;nan;101720.38;6268253;22;20004;-49
2021/08/09 03:32:38;;;;;;;4.70;2.53;;;;;;;12.75;nan;101721.66;6269338;22;20053;-49
2021/08/09 03:35:04;;;;;;;4.13;2.50;;;;;;;12.74;nan;101718.16;6268099;22;20003;-49
2021/08/09 03:37:30;;;;;;;8.55;2.60;;;;;;;12.74;nan;101718.16;6269178;22;20087;-49
2021/08/09 03:39:55;;;;;;;5.95;2.17;;;;;;;12.72;nan;101720.28;6268848;22;20035;-49
2021/08/09 03:42:21;;;;;;;3.38;2.05;;;;;;;12.66;nan;101721.22;6268429;22;20007;-49
2021/08/09 03:44:47;;;;;;;5.10;2.22;;;;;;;12.58;nan;101721.63;6268577;22;20050;-49
2021/08/09 03:47:12;;;;;;;6.65;2.30;;;;;;;12.51;nan;101710.16;6267690;22;20176;-49
2021/08/09 03:49:37;;;;;;;3.05;2.42;;;;;;;12.45;nan;101724.56;6269151;22;20263;-49
2021/08/09 03:52:03;;;;;;;6.00;2.20;;;;;;;12.42;nan;101725.03;6268439;22;20333;-50
2021/08/09 03:54:29;;;;;;;4.82;2.50;;;;;;;12.39;nan;101731.69;6268529;22;20088;-49
2021/08/09 03:56:54;;;;;;;3.03;2.00;;;;;;;12.39;nan;101735.22;6268665;22;20003;-49
2021/08/09 03:59:20;;;;;;;4.30;2.42;;;;;;;12.40;nan;101725.28;6241109;22;20007;-50
2021/08/09 04:01:48;;;;;;;8.18;2.78;;;;;;;12.39;nan;101732.53;6268873;22;19999;-51
2021/08/09 04:04:13;;;;;;;5.05;2.47;;;;;;;12.46;nan;101731.56;6267685;22;20010;-52
2021/08/09 04:06:39;;;;;;;2.95;2.45;;;;;;;12.50;nan;101730.03;6269421;22;20075;-50
2021/08/09 04:09:07;;;;;;;5.78;2.72;;;;;;;12.54;nan;101733.88;6268650;22;20042;-50
2021/08/09 04:11:33;;;;;;;3.95;2.63;;;;;;;12.59;nan;101731.31;6268659;22;20000;-49
2021/08/09 04:13:58;;;;;;;5.40;2.45;;;;;;;12.66;nan;101732.00;6268368;22;20007;-50
2021/08/09 04:16:25;;;;;;;4.10;2.53;;;;;;;12.69;nan;101728.81;6268478;22;20027;-49
2021/08/09 04:18:51;;;;;;;5.30;2.42;;;;;;;12.75;nan;101738.66;6267719;22;20065;-49
2021/08/09 04:21:16;;;;;;;5.60;2.85;;;;;;;12.86;nan;101736.94;6269274;22;20008;-48
2021/08/09 04:23:42;;;;;;;5.15;2.28;;;;;;;12.88;nan;101737.53;6271042;22;19999;-49
2021/08/09 04:26:07;;;;;;;4.20;2.47;;;;;;;12.97;nan;101736.94;6269317;22;20003;-49
2021/08/09 04:28:32;;;;;;;3.35;2.28;;;;;;;13.07;nan;101740.84;6270507;22;20378;-51
2021/08/09 04:30:58;;;;;;;8.93;2.78;;;;;;;13.15;nan;101743.16;6268867;22;20023;-48
2021/08/09 04:33:23;;;;;;;5.57;2.60;;;;;;;13.26;nan;101737.75;6270009;22;20004;-49
2021/08/09 04:35:49;;;;;;;5.53;2.95;;;;;;;13.36;nan;101734.44;6270469;22;20340;-49
2021/08/09 04:38:14;;;;;;;6.47;3.00;;;;;;;13.44;nan;101739.41;6269836;22;20053;-49
2021/08/09 04:40:40;;;;;;;5.50;2.60;;;;;;;13.52;nan;101740.91;6271180;22;19999;-50
2021/08/09 04:43:06;;;;;;;5.13;2.42;;;;;;;13.67;nan;101746.56;6269791;22;20008;-49
2021/08/09 04:45:32;;;;;;;3.67;2.35;;;;;;;13.81;nan;101752.41;6268047;22;20060;-49
2021/08/09 04:47:57;;;;;;;2.80;2.00;;;;;;;13.94;nan;101753.97;6242219;22;20004;-49
2021/08/09 04:50:23;;;;;;;6.00;2.50;;;;;;;14.06;nan;101752.81;6267884;22;20025;-49
2021/08/09 04:52:48;;;;;;;3.50;2.10;;;;;;;14.15;nan;101758.59;6269430;22;20057;-49
2021/08/09 04:55:14;;;;;;;7.05;2.80;;;;;;;14.14;nan;101763.16;6269138;22;20027;-49
2021/08/09 04:57:40;;;;;;;6.72;2.60;;;;;;;14.29;nan;101759.06;6270103;22;20029;-49
2021/08/09 05:00:07;;;;;;;3.50;2.70;;;;;;;14.35;nan;101761.56;6268915;22;20000;-49
2021/08/09 05:02:34;;;;;;;2.72;2.03;;;;;;;14.42;nan;101759.53;6266790;22;20309;-49
2021/08/09 05:05:00;;;;;;;3.45;2.50;;;;;;;14.45;nan;101764.47;6264601;22;20000;-49
2021/08/09 05:07:25;;;;;;;4.22;2.13;;;;;;;14.61;nan;101757.38;6266918;22;20014;-49
2021/08/09 05:09:51;;;;;;;3.70;2.33;;;;;;;14.70;nan;101760.44;6270243;22;20379;-49
2021/08/09 05:12:16;;;;;;;4.10;2.00;;;;;;;14.82;nan;101755.75;6269541;22;20003;-49
2021/08/09 05:14:41;;;;;;;5.57;2.85;;;;;;;14.87;nan;101763.09;6269572;22;20153;-49
2021/08/09 05:17:07;;;;;;;3.45;2.40;;;;;;;14.98;nan;101767.56;6269960;22;20426;-49
2021/08/09 05:19:33;;;;;;;3.70;2.42;;;;;;;15.08;nan;101771.19;6270329;22;20011;-49
2021/08/09 05:21:58;;;;;;;4.80;2.33;;;;;;;15.26;nan;101780.84;6269660;22;20003;-49
2021/08/09 05:24:24;;;;;;;4.82;2.10;;;;;;;15.23;nan;101770.50;6269622;22;20213;-49
2021/08/09 05:26:50;;;;;;;2.90;2.58;;;;;;;15.38;nan;101776.06;6266886;22;20340;-49
2021/08/09 05:29:15;;;;;;;3.55;1.83;;;;;;;15.48;nan;101774.56;6268061;22;20010;-50
2021/08/09 05:31:41;;;;;;;4.55;2.20;;;;;;;15.61;nan;101776.84;6268930;22;20042;-52
2021/08/09 05:34:07;;;;;;;7.20;2.35;;;;;;;15.61;nan;101782.25;6267581;22;20003;-51
2021/08/09 05:36:35;;;;;;;2.83;2.22;;;;;;;15.67;nan;101771.25;6268562;22;20086;-52
2021/08/09 05:39:00;;;;;;;2.72;1.92;;;;;;;15.87;nan;101775.19;6268371;22;20074;-50
2021/08/09 05:41:26;;;;;;;2.20;1.83;;;;;;;15.92;nan;101775.22;6268739;22;20038;-49
2021/08/09 05:43:52;;;;;;;4.05;2.20;;;;;;;16.05;nan;101782.09;6269488;22;20040;-52
2021/08/09 05:46:17;;;;;;;3.38;2.13;;;;;;;16.10;nan;101782.94;6268886;22;20224;-50
2021/08/09 05:48:43;;;;;;;3.38;2.17;;;;;;;16.17;nan;101778.13;6269928;22;20035;-50
2021/08/09 05:51:08;;;;;;;6.97;2.30;;;;;;;16.26;nan;101778.44;6269352;22;20067;-50
2021/08/09 05:53:34;;;;;;;5.10;2.05;;;;;;;16.23;nan;101785.19;6269672;22;20339;-50
2021/08/09 05:55:59;;;;;;;3.33;2.00;;;;;;;16.37;nan;101785.56;6268441;22;19999;-52
2021/08/09 05:58:25;;;;;;;4.53;2.00;;;;;;;16.41;nan;101778.53;6265232;22;20022;-52
2021/08/09 06:00:50;;;;;;;4.53;2.03;;;;;;;16.52;nan;101782.94;6267956;22;20097;-51
2021/08/09 06:03:22;;;;;;;6.57;2.08;;;;;;;16.67;nan;101776.81;6267438;22;20004;-50
2021/08/09 06:05:47;;;;;;;5.70;2.08;;;;;;;16.70;nan;101780.91;6267223;22;20011;-52
2021/08/09 06:08:13;;;;;;;2.65;1.88;;;;;;;16.66;nan;101785.97;6267088;22;20012;-54
2021/08/09 06:10:39;;;;;;;4.57;2.00;;;;;;;16.60;nan;101793.25;6267056;22;20003;-54
2021/08/09 06:13:04;;;;;;;4.82;2.38;;;;;;;16.74;nan;101796.34;6267832;22;20008;-51
2021/08/09 06:15:30;;;;;;;5.32;2.05;;;;;;;16.86;nan;101798.81;6267006;22;20007;-51
2021/08/09 06:17:55;;;;;;;2.95;1.80;;;;;;;16.92;nan;101801.28;6266993;22;20007;-54
2021/08/09 06:20:21;;;;;;;3.00;1.63;;;;;;;17.05;nan;101802.66;6267352;22;20033;-51
2021/08/09 06:22:46;;;;;;;3.13;1.60;;;;;;;17.32;nan;101804.38;6265805;22;20038;-50
2021/08/09 06:25:12;;;;;;;3.35;1.88;;;;;;;17.42;nan;101799.00;6266843;22;20027;-52
2021/08/09 06:27:38;;;;;;;3.25;1.90;;;;;;;17.58;nan;101811.47;6268008;22;20070;-52
2021/08/09 06:30:04;;;;;;;4.80;2.17;;;;;;;17.40;nan;101810.06;6266904;22;20014;-54
2021/08/09 06:32:30;;;;;;;2.88;1.92;;;;;;;17.59;nan;101806.84;6267244;22;20014;-51
2021/08/09 06:34:55;;;;;;;3.90;1.83;;;;;;;17.56;nan;101813.63;6267300;22;20008;-50
2021/08/09 06:37:21;;;;;;;2.22;1.83;;;;;;;17.55;nan;101808.47;6267541;22;19999;-51
2021/08/09 06:39:47;;;;;;;2.88;1.77;;;;;;;17.60;nan;101809.31;6266870;22;20450;-50
2021/08/09 06:42:12;;;;;;;3.47;1.45;;;;;;;17.78;nan;101816.97;6265002;22;20007;-53
2021/08/09 06:44:37;;;;;;;2.92;1.58;;;;;;;17.93;nan;101818.03;6266677;22;20243;-52
2021/08/09 06:47:03;;;;;;;3.05;1.88;;;;;;;17.90;nan;101819.38;6266707;22;20079;-53
2021/08/09 06:49:29;;;;;;;3.20;1.52;;;;;;;17.86;nan;101822.91;6265600;22;20073;-51
2021/08/09 06:51:55;;;;;;;2.53;1.58;;;;;;;18.16;nan;101820.22;6265940;22;20026;-50
2021/08/09 06:54:23;;;;;;;3.60;1.63;;;;;;;18.36;nan;101817.47;6266523;22;20007;-54
2021/08/09 06:56:49;;;;;;;3.55;1.65;;;;;;;18.58;nan;101824.47;6264855;22;20007;-52
2021/08/09 06:59:14;;;;;;;4.63;1.88;;;;;;;18.21;nan;101824.81;6265924;22;20375;-52
2021/08/09 07:01:40;;;;;;;3.50;1.50;;;;;;;18.55;nan;101820.41;6267043;22;20398;-52
2021/08/09 07:04:05;;;;;;;4.03;1.60;;;;;;;18.73;nan;101821.75;6265821;22;20015;-54
2021/08/09 07:06:31;;;;;;;4.25;1.40;;;;;;;18.76;nan;101818.47;6265775;22;20004;-51
2021/08/09 07:08:56;;;;;;;1.88;1.55;;;;;;;18.71;nan;101826.66;6265872;22;20011;-53
2021/08/09 07:11:22;;;;;;;1.83;1.42;;;;;;;19.11;nan;101833.00;6266643;22;20397;-53
2021/08/09 07:13:49;;;;;;;3.95;1.67;;;;;;;19.24;nan;101826.97;6267531;22;20014;-52
2021/08/09 07:16:14;;;;;;;4.15;1.90;;;;;;;19.43;nan;101827.94;6265470;22;20008;-50
2021/08/09 07:18:40;;;;;;;3.15;1.95;;;;;;;19.40;nan;101823.06;6266797;22;20486;-50
2021/08/09 07:21:10;;;;;;;3.15;1.83;;;;;;;19.42;nan;101823.59;6265842;22;20424;-50
2021/08/09 07:23:35;;;;;;;2.50;1.50;;;;;;;19.48;nan;101821.66;6263292;22;20387;-51
2021/08/09 07:26:01;;;;;;;2.83;1.60;;;;;;;19.66;nan;101814.78;6265700;22;20026;-50
2021/08/09 07:28:26;;;;;;;2.75;1.70;;;;;;;19.64;nan;101811.53;6266710;22;20436;-51
2021/08/09 07:30:52;;;;;;;3.83;1.58;;;;;;;19.75;nan;101813.06;6266402;22;20011;-51
2021/08/09 07:33:18;;;;;;;2.22;1.38;;;;;;;19.66;nan;101809.34;6265881;22;20057;-51
2021/08/09 07:35:43;;;;;;;2.28;1.33;;;;;;;19.83;nan;101815.19;6265747;22;20030;-54
2021/08/09 07:38:09;;;;;;;2.95;1.55;;;;;;;20.09;nan;101813.03;6266556;22;20015;-53
2021/08/09 07:40:34;;;;;;;4.45;1.48;;;;;;;20.16;nan;101813.53;6266219;22;20056;-52
2021/08/09 07:42:59;;;;;;;3.35;1.40;;;;;;;20.47;nan;101805.94;6265956;22;20042;-53
2021/08/09 07:45:25;;;;;;;4.95;1.70;;;;;;;20.45;nan;101805.38;6266140;22;20008;-51
2021/08/09 07:47:53;;;;;;;2.63;1.60;;;;;;;20.65;nan;101799.72;6266376;22;20006;-54
2021/08/09 07:50:20;;;;;;;4.70;1.83;;;;;;;20.51;nan;101794.16;6264816;22;20003;-52
2021/08/09 07:52:46;;;;;;;4.05;1.30;;;;;;;20.77;nan;101800.09;6266122;22;20004;-52
2021/08/09 07:55:12;;;;;;;4.68;1.63;;;;;;;20.96;nan;101789.25;6265858;22;20022;-53
2021/08/09 07:57:37;;;;;;;1.85;1.35;;;;;;;20.97;nan;101795.50;6268404;22;20003;-50
2021/08/09 08:00:04;;;;;;;4.10;1.55;;;;;;;21.20;nan;101796.56;6267916;22;20007;-54
2021/08/09 08:02:29;;;;;;;2.20;1.17;;;;;;;21.30;nan;101797.25;6268268;22;20004;-52
2021/08/09 08:04:55;;;;;;;1.92;1.40;;;;;;;21.04;nan;101801.41;6267312;22;20030;-51
2021/08/09 08:07:20;;;;;;;3.80;1.30;;;;;;;20.75;nan;101802.31;6268618;22;20498;-50
2021/08/09 08:09:48;;;;;;;1.98;1.58;;;;;;;20.85;nan;101797.84;6266487;22;20015;-54
2021/08/09 08:12:14;;;;;;;2.92;1.60;;;;;;;20.98;nan;101802.56;6266737;22;20011;-51
2021/08/09 08:14:40;;;;;;;4.97;1.73;;;;;;;20.95;nan;101806.69;6241564;22;20004;-53
2021/08/09 08:17:05;;;;;;;2.55;1.30;;;;;;;21.16;nan;101806.41;6267766;22;20008;-55
2021/08/09 08:19:31;;;;;;;2.38;1.30;;;;;;;21.20;nan;101811.00;6267981;22;20007;-53
2021/08/09 08:21:57;;;;;;;1.98;1.80;;;;;;;21.19;nan;101817.56;6267843;22;20000;-52
2021/08/09 08:24:22;;;;;;;3.10;1.42;;;;;;;21.27;nan;101814.22;6265545;22;20042;-53
2021/08/09 08:26:48;;;;;;;3.33;1.60;;;;;;;21.22;nan;101816.97;6268243;22;20215;-51
2021/08/09 08:29:13;;;;;;;2.47;1.50;;;;;;;21.56;nan;101816.78;6267671;22;20007;-51
2021/08/09 08:31:42;;;;;;;2.65;1.55;;;;;;;21.67;nan;101823.69;6268236;22;20011;-53
2021/08/09 08:34:07;;;;;;;2.80;1.70;;;;;;;21.80;nan;101830.31;6267094;22;20023;-54
2021/08/09 08:36:33;;;;;;;3.40;1.40;;;;;;;21.91;nan;101822.78;6268881;22;20301;-51
2021/08/09 08:38:58;;;;;;;3.95;1.50;;;;;;;21.94;nan;101817.53;6267881;22;20034;-54
2021/08/09 08:41:24;;;;;;;1.77;1.38;;;;;;;21.96;nan;101818.06;6268381;22;20003;-51
2021/08/09 08:43:50;;;;;;;2.95;1.48;;;;;;;22.13;nan;101819.44;6268212;22;20075;-51
2021/08/09 08:46:17;;;;;;;3.40;1.45;;;;;;;21.99;nan;101817.44;6267186;22;20066;-51
2021/08/09 08:48:43;;;;;;;2.20;1.27;;;;;;;22.22;nan;101814.91;6267235;22;20033;-51
2021/08/09 08:51:08;;;;;;;2.03;1.25;;;;;;;22.02;nan;101822.31;6266857;22;20491;-53
2021/08/09 08:53:35;;;;;;;3.85;1.30;;;;;;;22.14;nan;101821.88;6241332;22;20243;-50
2021/08/09 08:56:08;;;;;;;3.10;1.52;;;;;;;22.29;nan;101820.78;6266985;22;20007;-55
2021/08/09 08:58:35;;;;;;;3.08;1.42;;;;;;;22.48;nan;101815.25;6268565;22;20003;-52
2021/08/09 09:01:01;;;;;;;1.85;1.27;;;;;;;22.60;nan;101826.47;6240190;22;20010;-54
2021/08/09 09:03:28;;;;;;;3.03;1.38;;;;;;;22.73;nan;101833.06;6267896;22;20004;-53
2021/08/09 09:06:03;;;;;;;3.08;1.60;;;;;;;22.85;nan;101839.66;6268066;22;20003;-54
2021/08/09 09:08:48;;;;;;;3.08;1.55;;;;;;;22.86;nan;101835.00;6267125;22;20090;-53
2021/08/09 09:11:37;;;;;;;3.88;1.33;;;;;;;23.04;nan;101836.81;6266987;22;20358;-54
2021/08/09 09:14:05;;;;;;;3.95;1.38;;;;;;;22.95;nan;101835.91;6267620;22;20093;-53
2021/08/09 09:16:47;;;;;;;1.85;1.40;;;;;;;22.56;nan;101845.38;6267779;22;20026;-51
2021/08/09 09:19:44;;;;;;;5.80;1.80;;;;;;;22.28;nan;101844.56;6266770;22;20026;-50
2021/08/09 09:22:18;;;;;;;2.88;1.50;;;;;;;22.24;nan;101848.16;6217070;22;20529;-51
2021/08/09 09:24:48;;;;;;;;;;;;;;;22.00;nan;101848.28;6267753;22;20482;-54
2021/08/09 09:27:29;;;;;;;3.72;1.60;;;;;;;22.21;nan;101849.56;6266929;22;20250;-53
2021/08/09 09:29:56;;;;;;;3.42;1.48;;;;;;;22.50;nan;101857.53;6266725;22;20008;-54
2021/08/09 09:32:23;;;;;;;2.78;1.50;;;;;;;22.40;nan;101857.69;6266204;22;20053;-51
2021/08/09 09:34:51;;;;;;;3.35;1.40;;;;;;;22.27;nan;101855.78;6267563;22;20004;-51
2021/08/09 09:37:25;;;;;;;2.35;1.58;;;;;;;22.26;nan;101862.31;6267039;22;20034;-52
2021/08/09 09:39:51;;;;;;;2.67;1.48;;;;;;;22.25;nan;101861.50;6266937;22;20030;-53
2021/08/09 09:42:17;;;;;;;3.60;1.30;;;;;;;22.26;nan;101865.88;6264178;22;20717;-53
2021/08/09 09:44:44;;;;;;;12.65;3.10;;;;;;;22.33;nan;101870.94;6267731;22;20000;-50
2021/08/09 09:47:24;;;;;;;6.85;2.45;;;;;;;22.28;nan;101868.31;6266786;22;20046;-52
2021/08/09 09:49:56;;;;;;;7.90;2.95;;;;;;;21.94;nan;101865.84;6266723;22;20004;-52
2021/08/09 09:52:35;;;;;;;16.58;2.78;;;;;;;21.85;nan;101870.34;6267381;22;20017;-52
2021/08/09 09:55:05;;;;;;;10.52;2.88;;;;;;;21.70;nan;101860.47;6265234;22;20081;-52
2021/08/09 09:57:31;;;;;;;2.47;1.50;;;;;;;21.90;nan;101862.06;6266484;22;20088;-51
2021/08/09 09:59:58;;;;;;;3.80;1.58;;;;;;;21.84;nan;101866.00;6265244;22;20003;-52
2021/08/09 10:02:25;;;;;;;3.95;1.40;;;;;;;21.93;nan;101865.03;6267280;22;20000;-54
2021/08/09 10:04:51;;;;;;;2.28;1.60;;;;;;;22.03;nan;101864.84;6266773;22;20460;-55
2021/08/09 10:07:30;;;;;;;2.90;1.65;;;;;;;22.15;nan;101871.81;6266480;22;20007;-51
2021/08/09 10:09:59;;;;;;;3.13;1.80;;;;;;;22.10;nan;101863.72;6267375;22;20352;-53
2021/08/09 10:12:28;;;;;;;4.15;1.65;;;;;;;22.49;nan;101861.38;6267266;22;20035;-52
2021/08/09 10:14:54;;;;;;;3.45;1.90;;;;;;;22.61;nan;101869.06;6265483;22;20094;-56
2021/08/09 10:17:22;;;;;;;3.17;1.42;;;;;;;23.10;nan;101865.66;6266990;22;19999;-52
2021/08/09 10:19:50;;;;;;;3.50;1.42;;;;;;;22.68;nan;101868.69;6266999;22;20029;-54
2021/08/09 10:22:20;;;;;;;3.10;1.38;;;;;;;23.09;nan;101866.78;6262959;22;20008;-51
2021/08/09 10:24:48;;;;;;;5.00;1.45;;;;;;;23.28;nan;101871.31;6267803;22;20014;-50
2021/08/09 10:27:14;;;;;;;2.88;1.35;;;;;;;22.98;nan;101868.13;6266193;22;20484;-51
2021/08/09 10:29:58;;;;;;;2.60;1.50;;;;;;;23.13;nan;101881.44;6266485;22;20003;-52
2021/08/09 10:32:24;;;;;;;4.72;1.88;;;;;;;23.30;nan;101869.06;6267332;22;20049;-52
2021/08/09 10:34:50;;;;;;;2.65;1.40;;;;;;;23.17;nan;101877.00;6267289;22;20007;-55
2021/08/09 10:37:16;;;;;;;3.45;1.33;;;;;;;23.29;nan;101860.06;6266604;22;20065;-52
2021/08/09 10:39:54;;;;;;;4.65;1.90;;;;;;;23.26;nan;101859.88;6267082;22;20028;-51
2021/08/09 10:42:40;;;;;;;4.35;1.38;;;;;;;23.94;nan;101858.88;6266886;22;20004;-51
2021/08/09 10:45:39;;;;;;;2.00;1.13;;;;;;;23.90;nan;101866.91;6265367;22;20344;-51
2021/08/09 10:48:05;;;;;;;3.28;1.30;;;;;;;24.12;nan;101874.31;6265944;22;20368;-51
2021/08/09 10:50:39;;;;;;;3.65;1.60;;;;;;;24.29;nan;101863.47;6267037;22;20056;-53
2021/08/09 10:53:30;;;;;;;5.07;1.52;;;;;;;23.54;nan;101866.91;6265966;22;20012;-55
2021/08/09 10:55:56;;;;;;;4.80;1.67;;;;;;;23.72;nan;101871.44;6265403;22;20365;-53
2021/08/09 10:58:40;;;;;;;3.58;1.25;;;;;;;24.03;nan;101863.28;6266981;22;20003;-52
2021/08/09 11:01:06;;;;;;;8.52;1.80;;;;;;;24.39;nan;101860.47;6265663;22;20015;-54
2021/08/09 11:03:31;;;;;;;7.38;2.00;;;;;;;24.57;nan;101866.81;6266884;22;20007;-53
2021/08/09 11:05:57;;;;;;;2.92;1.13;;;;;;;24.83;nan;101856.00;6265535;22;20004;-55
2021/08/09 11:08:22;;;;;;;1.85;1.05;;;;;;;24.60;nan;101851.72;6267212;22;20014;-54
2021/08/09 11:10:51;;;;;;;1.90;0.98;;;;;;;24.84;nan;101846.63;6265529;22;20065;-54
2021/08/09 11:13:17;;;;;;;8.95;1.55;;;;;;;24.58;nan;101842.97;6265780;22;20019;-55
2021/08/09 11:16:03;;;;;;;3.97;1.10;;;;;;;24.60;nan;101846.22;6266668;22;19999;-55
2021/08/09 11:18:30;;;;;;;2.28;1.15;;;;;;;24.88;nan;101841.31;6239711;22;20080;-51
2021/08/09 11:21:10;;;;;;;3.33;1.10;;;;;;;24.89;nan;101846.47;6238531;22;20039;-54
2021/08/09 11:23:40;;;;;;;2.13;1.02;;;;;;;24.66;nan;101848.50;6237450;22;20090;-55
2021/08/09 11:26:17;;;;;;;4.07;1.20;;;;;;;24.50;nan;101846.50;6264941;22;20008;-54
2021/08/09 11:28:42;;;;;;;1.65;0.98;;;;;;;24.76;nan;101846.59;6266895;22;20340;-54
2021/08/09 11:31:08;;;;;;;4.40;1.10;;;;;;;24.97;nan;101845.72;6238241;22;20011;-51
2021/08/09 11:33:34;;;;;;;1.88;0.80;;;;;;;24.93;nan;101833.75;6266613;22;20007;-51
2021/08/09 11:36:05;;;;;;;2.25;0.93;;;;;;;25.01;nan;101837.69;6265254;22;20008;-55
2021/08/09 11:38:55;;;;;;;3.50;0.90;;;;;;;25.42;nan;101845.47;6267040;22;20078;-54
2021/08/09 11:41:29;;;;;;;2.45;1.10;;;;;;;25.50;nan;101847.44;6253710;22;20007;-54
2021/08/09 11:44:03;;;;;;;2.55;0.95;;;;;;;25.68;nan;101847.47;6264616;22;20027;-53
2021/08/09 11:46:29;;;;;;;2.60;1.08;;;;;;;25.84;nan;101845.81;6267553;22;20000;-53